Time;durP1;ratioP1;P1;durP2;ratioP2;P2;SDS_P1;SDS_P2;PMS_P1;PMS_P2;Temp;Humidity;BMP_temperature;BMP_pressure;BME280_temperature;BME280_humidity;BME280_pressure;Samples;Min_cycle;Max_cycle;Signal;HPM_P1;HPM_P2
2022/08/16 00:02:00;;;;;;;;;34.67;32.33;;;;;23.50;64.05;99953.81;4862831;29;48343;-85
2022/08/16 00:04:26;;;;;;;;;34.00;31.67;;;;;23.45;64.06;99950.44;4891719;28;46136;-84
2022/08/16 00:06:54;;;;;;;;;32.33;30.33;;;;;23.41;64.45;99948.84;4898386;28;44814;-83
2022/08/16 00:09:20;;;;;;;;;34.67;32.00;;;;;23.42;64.72;99953.34;4898050;28;44846;-84
2022/08/16 00:11:47;;;;;;;;;34.00;30.33;;;;;23.36;64.58;99952.69;4897289;29;45412;-84
2022/08/16 00:14:22;;;;;;;;;29.33;29.00;;;;;23.36;64.96;99966.25;4885676;29;45365;-84
2022/08/16 00:16:47;;;;;;;;;31.33;30.00;;;;;23.34;64.78;99970.00;4894969;29;44985;-84
2022/08/16 00:19:23;;;;;;;;;29.00;28.00;;;;;23.29;64.64;99967.53;4894389;28;45298;-85
2022/08/16 00:21:50;;;;;;;;;34.33;32.00;;;;;23.29;65.40;99966.63;4894861;29;47371;-84
2022/08/16 00:24:15;;;;;;;;;34.00;32.00;;;;;23.28;64.90;99976.63;4894526;28;45347;-85
2022/08/16 00:26:42;;;;;;;;;30.00;29.67;;;;;23.28;65.18;99979.31;4896926;28;44845;-84
2022/08/16 00:29:08;;;;;;;;;32.33;30.00;;;;;23.28;65.33;99976.63;4894230;28;44972;-84
2022/08/16 00:31:34;;;;;;;;;35.00;33.00;;;;;23.31;65.40;99970.19;4896937;28;45339;-85
2022/08/16 00:34:00;;;;;;;;;35.00;32.67;;;;;23.31;65.29;99971.06;4896731;29;45467;-85
2022/08/16 00:36:25;;;;;;;;;32.33;30.00;;;;;23.32;65.19;99977.34;4897693;28;45393;-84
2022/08/16 00:38:51;;;;;;;;;30.33;30.00;;;;;23.32;65.51;99977.34;4881445;29;45434;-85
2022/08/16 00:41:18;;;;;;;;;41.67;35.00;;;;;23.30;65.58;99972.00;4897642;29;46484;-85
2022/08/16 00:47:15;;;;;;;;;35.67;31.00;;;;;23.32;66.27;99970.06;4897099;28;44736;-84
2022/08/16 00:49:40;;;;;;;;;33.00;31.00;;;;;23.32;65.81;99967.38;4896683;29;45428;-84
2022/08/16 00:52:06;;;;;;;;;38.33;34.33;;;;;23.32;65.79;99961.94;4896747;28;46284;-84
2022/08/16 00:54:31;;;;;;;;;33.33;31.00;;;;;23.35;66.11;99959.09;4895520;29;45469;-84
2022/08/16 00:57:01;;;;;;;;;37.33;31.67;;;;;23.39;65.59;99953.47;4880337;29;45465;-85
2022/08/16 00:59:30;;;;;;;;;35.67;32.00;;;;;23.42;65.52;99958.75;4864972;29;45555;-83
2022/08/16 01:01:56;;;;;;;;;35.67;33.00;;;;;23.43;65.61;99950.56;4864999;29;47182;-84
2022/08/16 01:04:26;;;;;;;;;35.00;32.00;;;;;23.48;65.72;99955.72;4895515;29;45631;-84
2022/08/16 01:06:51;;;;;;;;;34.67;32.67;;;;;23.45;65.18;99948.63;4898894;28;44950;-84
2022/08/16 01:09:17;;;;;;;;;33.33;29.67;;;;;23.51;65.24;99960.97;4915716;29;45486;-84
2022/08/16 01:11:43;;;;;;;;;34.33;32.00;;;;;23.47;65.31;99946.72;4911712;29;46826;-84
2022/08/16 01:14:21;;;;;;;;;30.67;30.00;;;;;23.49;65.30;99943.91;4914388;28;45431;-84
2022/08/16 01:16:55;;;;;;;;;32.67;30.00;;;;;23.55;65.82;99944.47;4915465;28;45347;-84
2022/08/16 01:19:32;;;;;;;;;34.33;31.67;;;;;23.54;65.65;99945.41;4898808;28;44835;-84
2022/08/16 01:22:04;;;;;;;;;31.33;30.33;;;;;23.51;65.83;99939.28;4915037;28;45880;-84
2022/08/16 01:24:39;;;;;;;;;37.33;33.00;;;;;23.48;66.36;99942.16;4897304;29;45343;-85
2022/08/16 01:27:31;;;;;;;;;32.67;31.00;;;;;23.48;66.27;99944.88;4897922;28;45415;-85
2022/08/16 01:30:03;;;;;;;;;34.00;30.33;;;;;23.48;66.01;99945.75;4911998;28;45468;-83
2022/08/16 01:32:31;;;;;;;;;32.33;31.00;;;;;23.47;66.43;99943.09;4912987;28;48191;-84
2022/08/16 01:34:57;;;;;;;;;35.67;32.00;;;;;23.46;65.90;99947.66;4912764;28;45494;-85
2022/08/16 01:37:23;;;;;;;;;30.33;29.67;;;;;23.44;66.41;99937.84;4897825;28;45468;-84
2022/08/16 01:39:49;;;;;;;;;33.67;31.00;;;;;23.45;65.92;99950.44;4914793;28;45402;-84
2022/08/16 01:42:15;;;;;;;;;35.33;32.00;;;;;23.43;66.03;99953.25;4897638;29;45516;-84
2022/08/16 01:44:41;;;;;;;;;33.33;30.67;;;;;23.47;66.04;99953.97;4900928;28;45317;-83
2022/08/16 01:47:08;;;;;;;;;32.67;30.67;;;;;23.42;66.27;99945.19;4916101;28;45317;-84
2022/08/16 01:49:37;;;;;;;;;30.33;30.00;;;;;23.42;66.12;99947.91;4912892;28;44773;-84
2022/08/16 01:52:08;;;;;;;;;34.00;31.33;;;;;23.45;66.30;99950.44;4895883;29;46746;-84
2022/08/16 01:54:34;;;;;;;;;33.67;30.67;;;;;23.42;65.94;99951.50;4896817;29;45480;-85
2022/08/16 01:57:01;;;;;;;;;31.00;30.33;;;;;23.43;65.73;99955.06;4912622;28;45541;-84
2022/08/16 01:59:27;;;;;;;;;28.33;26.33;;;;;23.39;66.06;99951.66;4914540;28;45382;-84
2022/08/16 02:01:54;;;;;;;;;30.67;30.00;;;;;23.41;65.98;99948.84;4914144;29;47426;-83
2022/08/16 02:04:22;;;;;;;;;32.67;29.67;;;;;23.41;65.99;99940.72;4914986;28;44910;-84
2022/08/16 02:06:47;;;;;;;;;34.00;31.33;;;;;23.35;66.34;99933.78;4915801;29;45400;-84
2022/08/16 02:09:22;;;;;;;;;37.00;32.00;;;;;23.37;66.16;99940.03;4898588;29;45409;-84
2022/08/16 02:11:51;;;;;;;;;38.33;33.00;;;;;23.31;66.27;99938.50;4906948;28;47835;-84
2022/08/16 02:14:17;;;;;;;;;33.33;31.33;;;;;23.35;66.44;99948.22;4914830;29;44864;-84
2022/08/16 02:16:43;;;;;;;;;31.33;30.33;;;;;23.33;66.85;99947.44;4913674;28;45312;-85
2022/08/16 02:19:10;;;;;;;;;31.67;30.00;;;;;23.27;66.30;99939.59;4914282;28;45374;-85
2022/08/16 02:21:36;;;;;;;;;32.00;31.00;;;;;23.25;66.71;99936.09;4914367;28;45457;-85
2022/08/16 02:24:03;;;;;;;;;33.33;30.33;;;;;23.26;67.18;99934.25;4913147;29;45525;-85
2022/08/16 02:26:28;;;;;;;;;34.33;32.00;;;;;23.30;67.15;99946.69;4913619;28;45390;-85
2022/08/16 02:28:54;;;;;;;;;32.33;30.33;;;;;23.30;67.14;99936.72;4912517;28;45872;-85
2022/08/16 02:31:19;;;;;;;;;34.33;32.00;;;;;23.31;66.90;99929.47;4912655;28;45225;-85
2022/08/16 02:33:45;;;;;;;;;30.67;30.33;;;;;23.26;67.23;99921.56;4897413;28;45498;-84
2022/08/16 02:36:12;;;;;;;;;35.00;31.67;;;;;23.27;66.95;99923.31;4912345;29;44976;-85
2022/08/16 02:38:39;;;;;;;;;33.67;32.00;;;;;23.24;67.26;99918.03;4910500;29;45394;-85
2022/08/16 02:41:07;;;;;;;;;35.67;31.67;;;;;23.21;67.57;99920.94;4908913;29;47410;-85
2022/08/16 02:43:33;;;;;;;;;32.00;30.67;;;;;23.14;68.14;99911.34;4910141;29;45388;-85
2022/08/16 02:45:59;;;;;;;;;33.67;32.00;;;;;23.11;68.06;99892.53;4892598;29;45417;-85
2022/08/16 02:48:27;;;;;;;;;35.67;33.00;;;;;23.09;68.03;99905.28;4893708;29;45416;-83
2022/08/16 02:50:53;;;;;;;;;39.33;35.00;;;;;23.13;67.46;99918.59;4920114;28;47711;-84
2022/08/16 02:53:19;;;;;;;;;34.67;32.67;;;;;23.12;67.58;99903.28;4911253;29;45740;-84
2022/08/16 02:55:45;;;;;;;;;32.67;30.67;;;;;23.15;67.48;99895.00;4895756;29;45411;-84
2022/08/16 02:58:11;;;;;;;;;32.00;30.67;;;;;23.21;67.53;99891.09;4912039;29;45539;-84
2022/08/16 03:00:37;;;;;;;;;33.00;32.00;;;;;23.22;68.19;99881.97;4891676;29;46622;-84
2022/08/16 03:03:03;;;;;;;;;33.00;30.00;;;;;23.11;67.87;99862.69;4891584;29;45332;-84
2022/08/16 03:05:29;;;;;;;;;36.33;33.00;;;;;23.13;68.24;99860.78;4900340;29;45379;-84
2022/08/16 03:07:55;;;;;;;;;36.67;33.00;;;;;23.11;68.53;99874.41;4909969;29;45495;-83
2022/08/16 03:10:21;;;;;;;;;31.67;30.33;;;;;23.13;68.73;99885.19;4906737;29;48603;-83
2022/08/16 03:12:49;;;;;;;;;36.00;33.00;;;;;23.09;69.00;99895.31;4893713;29;45356;-83
2022/08/16 03:15:15;;;;;;;;;37.33;33.67;;;;;23.16;68.68;99901.28;4911246;29;44918;-84
2022/08/16 03:17:42;;;;;;;;;35.00;31.00;;;;;23.11;69.44;99889.81;4911392;29;45343;-84
2022/08/16 03:20:09;;;;;;;;;30.67;30.00;;;;;23.07;69.17;99893.66;4896461;29;47244;-84
2022/08/16 03:22:35;;;;;;;;;32.33;30.67;;;;;23.10;69.11;99921.47;4910737;29;45429;-84
2022/08/16 03:25:05;;;;;;;;;37.33;33.00;;;;;23.10;69.10;99912.44;4903091;29;45439;-84
2022/08/16 03:27:32;;;;;;;;;37.00;34.00;;;;;23.10;69.60;99912.44;4912073;29;45454;-83
2022/08/16 03:30:21;;;;;;;;;31.33;30.00;;;;;23.08;69.48;99904.38;4893668;29;47195;-84
2022/08/16 03:32:48;;;;;;;;;38.00;35.00;;;;;23.05;69.84;99914.53;4910154;29;45464;-83
2022/08/16 03:35:16;;;;;;;;;34.00;31.33;;;;;22.97;69.90;99906.75;4904297;29;45335;-84
2022/08/16 03:37:44;;;;;;;;;34.67;32.33;;;;;22.96;70.16;99916.69;4918583;28;45506;-84
2022/08/16 03:40:12;;;;;;;;;34.33;32.33;;;;;22.99;69.64;99920.25;4924305;28;46698;-84
2022/08/16 03:42:37;;;;;;;;;39.67;32.67;;;;;23.00;69.84;99921.97;4895697;29;45475;-84
2022/08/16 03:45:03;;;;;;;;;35.67;32.00;;;;;22.95;70.26;99904.13;4924034;28;45505;-84
2022/08/16 03:47:28;;;;;;;;;32.33;30.67;;;;;22.96;70.13;99910.41;4895995;28;45569;-83
2022/08/16 03:49:55;;;;;;;;;40.00;33.00;;;;;22.90;70.51;99911.59;4910325;29;47833;-84
2022/08/16 03:52:22;;;;;;;;;38.33;34.67;;;;;22.81;70.45;99890.38;4909743;29;45362;-84
2022/08/16 03:54:48;;;;;;;;;33.33;30.67;;;;;22.94;70.40;99912.31;4893866;29;45549;-84
2022/08/16 03:57:15;;;;;;;;;35.67;32.00;;;;;22.92;70.15;99909.69;4911384;29;45307;-84
2022/08/16 03:59:40;;;;;;;;;32.67;30.33;;;;;22.95;70.89;99912.25;4901198;28;47806;-84
2022/08/16 04:02:06;;;;;;;;;33.00;30.67;;;;;22.91;70.39;99918.78;4913342;29;44890;-83
2022/08/16 04:04:35;;;;;;;;;34.33;30.33;;;;;22.99;70.78;99926.53;4927113;28;45359;-84
2022/08/16 04:07:02;;;;;;;;;36.00;31.33;;;;;22.99;70.44;99925.66;4898632;29;45373;-84
2022/08/16 04:09:29;;;;;;;;;37.00;33.00;;;;;22.90;70.62;99922.44;4912042;29;47868;-83
2022/08/16 04:11:54;;;;;;;;;34.67;32.33;;;;;22.86;70.78;99920.81;4913002;29;45497;-84
2022/08/16 04:14:59;;;;;;;;;35.00;32.00;;;;;22.86;71.35;99925.38;4911195;29;45573;-84
2022/08/16 04:17:25;;;;;;;;;38.00;35.00;;;;;22.80;71.55;99918.44;4919268;28;45632;-83
2022/08/16 04:19:50;;;;;;;;;35.33;32.00;;;;;22.75;71.30;99923.22;4896238;29;47048;-83
2022/08/16 04:22:15;;;;;;;;;37.00;32.67;;;;;22.73;71.12;99926.00;4913079;29;45833;-83
2022/08/16 04:24:41;;;;;;;;;34.00;32.00;;;;;22.73;71.78;99927.84;4898727;29;45374;-85
2022/08/16 04:27:07;;;;;;;;;35.33;32.33;;;;;22.68;71.59;99921.75;4914471;29;45489;-84
2022/08/16 04:29:32;;;;;;;;;34.67;31.00;;;;;22.68;71.74;99917.22;4906856;28;46960;-84
2022/08/16 04:31:58;;;;;;;;;42.00;35.67;;;;;22.71;71.58;99927.03;4900174;29;45448;-84
2022/08/16 04:34:30;;;;;;;;;38.33;33.00;;;;;22.73;72.26;99931.41;4917801;28;45342;-84
2022/08/16 04:36:59;;;;;;;;;31.00;30.00;;;;;22.68;72.06;99927.16;4917529;28;45467;-85
2022/08/16 04:39:25;;;;;;;;;28.00;27.33;;;;;22.72;72.11;99939.63;4897750;29;46961;-84
2022/08/16 04:41:51;;;;;;;;;28.67;28.33;;;;;22.71;72.81;99930.63;4914567;28;45455;-85
2022/08/16 04:44:17;;;;;;;;;29.00;28.33;;;;;22.66;72.45;99919.13;4929119;28;45284;-84
2022/08/16 04:46:43;;;;;;;;;29.33;29.33;;;;;22.67;72.23;99920.88;4916502;28;45245;-84
2022/08/16 04:49:10;;;;;;;;;30.00;29.00;;;;;22.68;72.75;99916.31;4898909;29;47077;-84
2022/08/16 04:51:39;;;;;;;;;24.33;24.33;;;;;22.68;72.71;99924.47;4916321;28;45432;-84
2022/08/16 04:54:04;;;;;;;;;28.67;27.33;;;;;22.72;72.62;99932.38;4913929;29;45690;-84
2022/08/16 04:56:30;;;;;;;;;26.67;26.67;;;;;22.75;73.00;99934.06;4931442;28;45252;-84
2022/08/16 04:58:55;;;;;;;;;28.67;28.33;;;;;22.79;72.94;99934.78;4898593;28;45350;-84
2022/08/16 05:01:22;;;;;;;;;35.00;31.00;;;;;22.72;74.35;99939.63;4899610;28;45168;-85
2022/08/16 05:03:47;;;;;;;;;33.33;31.00;;;;;22.70;74.72;99942.44;4899090;29;45427;-85
2022/08/16 05:06:13;;;;;;;;;33.67;32.00;;;;;22.63;75.11;99932.81;4898458;29;44991;-85
2022/08/16 05:08:38;;;;;;;;;33.33;31.33;;;;;22.60;75.61;99940.22;4909556;28;47446;-84
2022/08/16 05:11:06;;;;;;;;;32.33;31.00;;;;;22.62;76.36;99950.03;4915755;28;45493;-84
2022/08/16 05:13:34;;;;;;;;;28.67;28.67;;;;;22.56;76.51;99951.22;4916593;28;45407;-85
2022/08/16 05:16:00;;;;;;;;;28.67;28.67;;;;;22.54;75.82;99958.53;4898235;29;45646;-85
2022/08/16 05:18:26;;;;;;;;;32.33;30.67;;;;;22.61;75.71;99969.09;4914809;28;45825;-85
2022/08/16 05:20:52;;;;;;;;;32.00;31.00;;;;;22.64;76.28;99967.09;4911136;28;45288;-85
2022/08/16 05:23:18;;;;;;;;;31.00;29.67;;;;;22.52;76.02;99949.63;4898659;29;44784;-85
2022/08/16 05:25:43;;;;;;;;;30.67;29.33;;;;;22.70;76.03;99976.75;4914626;29;45371;-85
2022/08/16 05:28:10;;;;;;;;;31.33;30.33;;;;;22.72;76.18;99970.34;4913451;28;45100;-85
2022/08/16 05:30:37;;;;;;;;;28.67;28.67;;;;;22.82;75.79;99978.88;4897196;28;45348;-85
2022/08/16 05:33:04;;;;;;;;;31.67;28.33;;;;;22.82;75.79;99970.75;4897132;29;45465;-85
2022/08/16 05:35:30;;;;;;;;;26.67;25.67;;;;;22.88;74.90;99973.16;4930333;28;45337;-84
2022/08/16 05:37:55;;;;;;;;;27.00;26.67;;;;;22.94;74.56;99972.84;4898156;28;48476;-85
2022/08/16 05:40:21;;;;;;;;;28.00;26.00;;;;;22.94;74.06;99977.41;4928523;28;45363;-85
2022/08/16 05:42:46;;;;;;;;;25.67;25.00;;;;;22.85;74.00;99961.59;4915528;28;45404;-84
2022/08/16 05:45:12;;;;;;;;;22.33;21.67;;;;;22.96;73.55;99973.66;4915876;29;45094;-85
2022/08/16 05:47:41;;;;;;;;;19.33;19.33;;;;;23.01;73.65;99969.84;4908427;29;45569;-85
2022/08/16 05:50:14;;;;;;;;;22.33;20.67;;;;;23.01;73.15;99976.16;4916785;28;45463;-85
2022/08/16 05:52:46;;;;;;;;;17.67;17.67;;;;;23.04;73.13;99975.16;4914438;29;44897;-85
2022/08/16 05:55:11;;;;;;;;;20.33;20.33;;;;;23.02;72.76;99969.78;4899752;28;45585;-85
2022/08/16 05:57:36;;;;;;;;;22.67;22.33;;;;;23.07;72.57;99984.00;4926640;28;46877;-85
2022/08/16 06:00:06;;;;;;;;;20.00;20.00;;;;;23.10;72.13;99972.13;4915489;29;45363;-85
2022/08/16 06:02:32;;;;;;;;;23.67;23.00;;;;;23.14;72.24;99980.03;4898347;28;45374;-84
2022/08/16 06:05:05;;;;;;;;;26.33;25.00;;;;;23.23;72.21;99984.13;4915316;29;45558;-84
2022/08/16 06:07:37;;;;;;;;;25.33;23.67;;;;;23.34;71.95;99989.00;4915722;29;46082;-84
2022/08/16 06:10:04;;;;;;;;;25.67;25.67;;;;;23.42;72.33;99994.03;4912646;28;45183;-86
2022/08/16 06:12:30;;;;;;;;;30.00;28.67;;;;;23.46;71.88;99996.50;4913811;28;45513;-86
2022/08/16 06:15:00;;;;;;;;;27.00;25.00;;;;;23.47;72.55;99987.44;4924250;28;45402;-87
2022/08/16 06:17:27;;;;;;;;;27.67;27.67;;;;;23.43;71.96;99987.63;4909397;28;47067;-86
2022/08/16 06:19:53;;;;;;;;;25.67;25.67;;;;;23.48;71.67;100002.75;4898019;28;45339;-86
2022/08/16 06:22:18;;;;;;;;;23.00;22.33;;;;;23.55;71.58;99996.06;4927879;28;45387;-88
2022/08/16 06:24:44;;;;;;;;;25.67;24.00;;;;;23.74;71.53;99995.97;4912298;29;44788;-85
2022/08/16 06:27:10;;;;;;;;;24.00;22.00;;;;;23.91;70.75;99999.66;4912671;28;45642;-85
2022/08/16 06:29:35;;;;;;;;;23.00;23.00;;;;;24.04;70.02;99997.19;4896974;28;44953;-85
2022/08/16 06:32:01;;;;;;;;;21.67;21.67;;;;;24.17;69.74;99992.81;4898606;28;44757;-85
2022/08/16 06:34:27;;;;;;;;;24.00;24.00;;;;;24.27;69.07;100001.34;4913604;28;44808;-86
2022/08/16 06:37:05;;;;;;;;;26.00;24.67;;;;;24.12;68.97;99982.22;4896530;29;46832;-86
2022/08/16 06:39:31;;;;;;;;;21.00;20.67;;;;;24.16;68.65;99999.22;4911942;29;45678;-86
2022/08/16 06:41:57;;;;;;;;;22.33;21.00;;;;;24.09;68.88;100006.81;4912920;28;45409;-86
2022/08/16 06:44:23;;;;;;;;;25.00;23.00;;;;;24.01;69.21;99998.19;4913727;28;45669;-86
2022/08/16 06:46:52;;;;;;;;;25.67;24.67;;;;;23.87;69.47;99979.91;4911063;28;46508;-85
2022/08/16 06:49:17;;;;;;;;;21.00;21.00;;;;;24.06;68.83;99998.84;4927465;28;45458;-85
2022/08/16 06:51:45;;;;;;;;;21.33;20.67;;;;;24.03;68.71;99993.56;4914076;28;44733;-86
2022/08/16 06:54:11;;;;;;;;;20.00;20.00;;;;;24.09;67.59;100003.22;4895884;29;45496;-86
2022/08/16 06:56:41;;;;;;;;;22.33;20.67;;;;;24.13;67.32;100008.41;4911625;28;47136;-86
2022/08/16 06:59:06;;;;;;;;;19.33;19.33;;;;;23.96;67.35;99973.13;4896712;29;44887;-86
2022/08/16 07:01:32;;;;;;;;;21.00;20.67;;;;;24.17;66.86;99999.13;4897751;28;44860;-86
2022/08/16 07:03:58;;;;;;;;;20.00;19.00;;;;;24.10;66.72;100000.44;4911211;29;45487;-86
2022/08/16 07:06:30;;;;;;;;;20.00;19.67;;;;;24.09;67.10;100001.38;4913329;28;45290;-87
2022/08/16 07:09:00;;;;;;;;;19.67;18.67;;;;;24.09;66.88;100005.94;4896155;28;45378;-85
2022/08/16 07:11:40;;;;;;;;;23.00;19.67;;;;;23.97;67.15;99991.19;4915496;28;45795;-86
2022/08/16 07:14:31;;;;;;;;;20.67;20.67;;;;;24.12;66.82;100009.38;4913590;29;45549;-86
2022/08/16 07:18:08;;;;;;;;;;;;;;;;;;;;;
2022/08/16 07:20:05;;;;;;;;;20.33;20.33;;;;;23.93;66.69;99978.72;4880256;29;45398;-86
2022/08/16 07:22:43;;;;;;;;;;;;;;;;;;;;;
2022/08/16 07:25:12;;;;;;;;;21.67;21.67;;;;;23.97;66.16;99983.03;4904550;29;65960;-87
2022/08/16 07:27:46;;;;;;;;;17.00;15.00;;;;;24.06;66.68;100000.69;4911060;28;45439;-86
2022/08/16 07:30:14;;;;;;;;;24.00;21.33;;;;;24.19;66.32;100014.47;4913655;28;44793;-84
2022/08/16 07:32:55;;;;;;;;;22.33;21.00;;;;;24.16;66.12;100013.69;4894124;29;45458;-86
2022/08/16 07:35:33;;;;;;;;;19.00;19.00;;;;;24.02;65.95;99980.09;4885279;29;45226;-85
2022/08/16 07:38:09;;;;;;;;;23.00;20.33;;;;;24.23;65.91;100002.47;4916112;28;45268;-87
2022/08/16 07:40:41;;;;;;;;;24.33;21.33;;;;;24.37;66.01;100027.06;4917390;28;44787;-86
2022/08/16 07:43:14;;;;;;;;;19.00;19.00;;;;;24.36;65.97;100011.72;4897829;28;45431;-86
2022/08/16 07:45:50;;;;;;;;;18.33;18.33;;;;;24.42;65.91;100019.53;4885311;29;45256;-87
2022/08/16 07:48:31;;;;;;;;;18.00;17.67;;;;;24.28;66.12;100004.00;4912911;28;46796;-87
2022/08/16 07:51:33;;;;;;;;;22.33;21.00;;;;;24.22;66.15;100006.16;4898226;28;44891;-85
2022/08/16 07:55:24;;;;;;;;;18.67;18.33;;;;;24.39;66.35;100025.13;4838820;29;44842;-87
2022/08/16 07:58:08;;;;;;;;;22.67;21.00;;;;;24.51;66.45;100029.94;4801343;29;45403;-87
2022/08/16 08:00:34;;;;;;;;;17.00;17.00;;;;;24.62;65.86;100036.59;4802404;29;45457;-85
2022/08/16 08:08:38;;;;;;;;;18.67;18.67;;;;;24.88;65.10;100021.56;4898969;26;45439;-87
2022/08/16 08:11:16;;;;;;;;;18.00;16.67;;;;;24.98;64.09;100022.78;4917217;28;45376;-86
2022/08/16 08:13:41;;;;;;;;;18.00;17.00;;;;;25.11;63.00;100028.41;5150661;23;46369;-87
2022/08/16 08:16:11;;;;;;;;;17.33;16.67;;;;;25.17;62.60;100019.91;4915947;28;45513;-84
2022/08/16 08:18:36;;;;;;;;;20.67;20.67;;;;;25.34;61.76;100013.47;4900164;28;45032;-86
2022/08/16 08:21:08;;;;;;;;;19.00;18.33;;;;;25.51;61.72;100017.91;4915984;28;46524;-89
2022/08/16 08:23:36;;;;;;;;;17.33;16.67;;;;;25.63;60.61;100019.94;4912621;28;45602;-86
2022/08/16 08:26:08;;;;;;;;;17.33;17.33;;;;;25.87;60.47;100030.28;4884391;28;45372;-86
2022/08/16 08:28:37;;;;;;;;;17.00;17.00;;;;;25.95;59.70;100008.94;4897982;28;45870;-85
2022/08/16 08:31:16;;;;;;;;;18.00;17.00;;;;;26.20;58.63;100018.31;4896672;29;45460;-86
2022/08/16 08:49:25;;;;;;;;;16.67;16.33;;;;;26.54;55.53;100001.59;3278880;26;46159;-85
2022/08/16 08:51:51;;;;;;;;;26.00;20.00;;;;;26.63;56.34;100027.41;4923725;28;46443;-84
2022/08/16 08:54:25;;;;;;;;;16.33;15.00;;;;;26.69;55.70;100035.19;4899889;28;45250;-85
2022/08/16 08:56:54;;;;;;;;;19.67;17.67;;;;;26.57;55.66;100027.78;4912693;28;44900;-86
2022/08/16 08:59:21;;;;;;;;;16.00;15.00;;;;;26.49;55.67;100028.25;4916895;28;45447;-87
2022/08/16 09:01:48;;;;;;;;;17.00;16.00;;;;;26.33;56.23;100005.66;4918112;28;45541;-85
2022/08/16 09:04:13;;;;;;;;;18.67;18.33;;;;;26.44;55.82;100033.16;5175287;23;46623;-85
2022/08/16 09:06:42;;;;;;;;;17.33;16.00;;;;;26.52;56.25;100052.63;4898120;28;45364;-85
2022/08/16 09:09:35;;;;;;;;;18.00;17.00;;;;;26.55;56.04;100052.41;4913525;28;45366;-84
2022/08/16 09:13:03;;;;;;;;;14.67;14.33;;;;;26.67;56.33;100039.00;4900040;28;46309;-86
2022/08/16 09:16:26;;;;;;;;;;;;;;;;;;;;;
2022/08/16 09:19:27;;;;;;;;;15.33;14.67;;;;;27.39;54.35;100028.84;4867310;29;45405;-85
2022/08/16 09:21:56;;;;;;;;;12.33;12.33;;;;;27.50;54.08;100022.66;4895837;28;44916;-87
2022/08/16 09:24:32;;;;;;;;;19.33;17.33;;;;;27.94;52.13;100043.34;4879806;29;45459;-85
2022/08/16 09:27:32;;;;;;;;;18.00;17.33;;;;;28.17;52.69;100038.13;4879215;29;44869;-84
2022/08/16 09:29:57;;;;;;;;;17.67;17.67;;;;;28.45;51.69;100048.84;4888445;29;45618;-84
2022/08/16 09:32:26;;;;;;;;;12.00;12.00;;;;;28.74;50.92;100054.09;4895828;29;45264;-85
2022/08/16 09:34:58;;;;;;;;;15.67;14.67;;;;;28.95;49.80;100068.09;4880667;28;46912;-85
2022/08/16 09:37:27;;;;;;;;;13.67;13.67;;;;;29.02;49.34;100063.03;4879529;29;44787;-84
2022/08/16 09:39:52;;;;;;;;;15.33;15.33;;;;;29.01;48.85;100061.28;4879675;29;44940;-85
2022/08/16 09:42:18;;;;;;;;;14.67;14.33;;;;;28.95;48.01;100053.53;4877930;29;45449;-85
2022/08/16 09:44:43;;;;;;;;;14.67;14.67;;;;;28.96;48.88;100058.00;4880616;29;46109;-84
2022/08/16 09:47:52;;;;;;;;;14.67;14.67;;;;;29.08;48.60;100060.69;4893800;29;45473;-84
2022/08/16 09:56:13;;;;;;;;;14.00;14.00;;;;;28.88;46.93;100062.19;3273226;26;45993;-84
2022/08/16 09:58:38;;;;;;;;;15.33;14.33;;;;;28.76;48.01;100057.59;4917286;28;45402;-85
2022/08/16 10:01:15;;;;;;;;;12.33;12.33;;;;;28.91;47.53;100066.56;4914545;28;45388;-85
2022/08/16 10:04:26;;;;;;;;;16.00;16.00;;;;;28.90;47.61;100046.53;4917719;28;45755;-85
2022/08/16 10:10:13;;;;;;;;;15.67;14.67;;;;;29.08;47.71;100068.91;4915743;28;45275;-86
2022/08/16 10:16:12;;;;;;;;;17.00;16.00;;;;;29.23;46.42;100044.16;4898282;28;45493;-85
2022/08/16 10:24:53;;;;;;;;;15.67;14.00;;;;;29.63;45.96;100054.81;5032091;23;45311;-85
2022/08/16 10:27:24;;;;;;;;;16.67;16.67;;;;;29.68;45.80;100047.13;4934273;28;45705;-86
2022/08/16 10:32:34;;;;;;;;;15.00;13.33;;;;;29.84;45.22;100060.56;2583777;23;46866;-85
2022/08/16 10:35:11;;;;;;;;;16.00;15.00;;;;;29.83;45.52;100039.63;4911974;28;45361;-84
2022/08/16 10:37:52;;;;;;;;;15.33;13.67;;;;;30.00;44.70;100072.09;4937366;28;45478;-85
2022/08/16 10:40:55;;;;;;;;;14.00;13.33;;;;;29.89;44.75;100072.03;4932965;28;46330;-85
2022/08/16 10:43:29;;;;;;;;;13.00;13.00;;;;;29.48;45.13;100029.47;4946303;28;45402;-86
2022/08/16 10:46:12;;;;;;;;;15.67;14.00;;;;;29.43;45.55;100050.84;4916794;28;45374;-85
2022/08/16 10:48:45;;;;;;;;;9.00;8.67;;;;;29.45;44.44;100066.22;4948883;28;44883;-83
2022/08/16 10:51:20;;;;;;;;;17.00;15.00;;;;;29.34;45.81;100066.13;4954469;28;45748;-86
2022/08/16 10:53:57;;;;;;;;;;;;;;;;;;;;;
2022/08/16 10:57:17;;;;;;;;;13.67;12.33;;;;;29.38;44.96;100064.03;4934551;28;67474;-85
2022/08/16 10:59:47;;;;;;;;;16.00;14.67;;;;;29.38;45.91;100069.53;4928893;28;44774;-86
2022/08/16 11:02:24;;;;;;;;;16.33;16.33;;;;;29.38;46.13;100064.91;4931626;28;45434;-88
2022/08/16 11:07:26;;;;;;;;;14.00;14.00;;;;;29.27;46.15;100057.50;5147570;23;46692;-85
2022/08/16 11:09:52;;;;;;;;;16.67;15.33;;;;;29.38;45.86;100075.00;4952685;28;45425;-86
2022/08/16 11:12:20;;;;;;;;;18.33;16.67;;;;;29.25;46.42;100064.09;4926351;28;46572;-86
2022/08/16 11:14:50;;;;;;;;;18.33;15.33;;;;;29.10;46.54;100061.47;4917512;28;45388;-85
2022/08/16 11:17:17;;;;;;;;;16.67;16.67;;;;;29.13;46.97;100076.84;4927036;28;45448;-84
2022/08/16 11:19:43;;;;;;;;;17.33;17.33;;;;;29.05;47.29;100079.25;4934082;28;45478;-85
2022/08/16 11:22:11;;;;;;;;;15.67;15.67;;;;;29.02;47.50;100073.97;4936651;28;46928;-85
2022/08/16 11:24:39;;;;;;;;;15.00;13.33;;;;;29.01;47.63;100064.03;4960229;28;45374;-84
2022/08/16 11:27:17;;;;;;;;;13.33;13.00;;;;;29.12;46.88;100064.13;4932724;28;44758;-84
2022/08/16 11:29:51;;;;;;;;;22.00;20.67;;;;;29.21;46.94;100068.03;4923437;28;44988;-85
2022/08/16 11:32:20;;;;;;;;;15.00;15.00;;;;;29.26;46.75;100072.19;4923441;28;48074;-84
2022/08/16 11:34:49;;;;;;;;;15.00;15.00;;;;;29.31;46.63;100064.50;4934945;28;45720;-84
2022/08/16 11:37:54;;;;;;;;;17.67;15.33;;;;;29.36;46.17;100076.97;4945778;28;44761;-85
2022/08/16 11:40:21;;;;;;;;;15.33;15.33;;;;;29.31;46.55;100072.72;4916119;28;45415;-84
2022/08/16 11:44:16;;;;;;;;;16.67;14.00;;;;;29.29;46.26;100077.44;4936883;28;47043;-84
2022/08/16 11:46:47;;;;;;;;;16.67;16.67;;;;;28.96;47.05;100055.25;4852708;29;44965;-84
2022/08/16 11:49:14;;;;;;;;;14.33;14.33;;;;;29.06;46.66;100086.44;4853550;29;45431;-83
2022/08/16 11:54:45;;;;;;;;;14.67;13.67;;;;;29.03;47.10;100076.59;4835449;29;45775;-83
2022/08/16 11:57:23;;;;;;;;;16.00;16.00;;;;;29.17;46.91;100077.47;4835047;29;44886;-83
2022/08/16 11:59:53;;;;;;;;;13.67;13.67;;;;;29.19;47.07;100070.00;4839227;29;44785;-83
2022/08/16 12:02:21;;;;;;;;;21.33;20.00;;;;;29.11;46.95;100032.28;4821125;29;44792;-83
2022/08/16 12:05:10;;;;;;;;;14.00;14.00;;;;;29.12;46.40;100047.69;4821418;29;45230;-83
2022/08/16 12:07:46;;;;;;;;;16.00;16.00;;;;;29.15;46.46;100058.44;4818035;29;45376;-83
2022/08/16 12:10:21;;;;;;;;;15.33;13.67;;;;;29.07;46.36;100072.66;4819392;29;45303;-84
2022/08/16 12:12:56;;;;;;;;;16.00;15.67;;;;;29.05;46.51;100087.44;4834597;29;45495;-84
2022/08/16 12:15:22;;;;;;;;;17.00;17.00;;;;;28.84;46.77;100074.31;4817202;29;45124;-84
2022/08/16 12:17:55;;;;;;;;;15.00;15.00;;;;;28.84;46.89;100085.28;4832115;29;45415;-84
2022/08/16 12:20:34;;;;;;;;;13.67;13.67;;;;;28.64;47.79;100077.63;4805065;29;45354;-85
2022/08/16 12:23:12;;;;;;;;;18.00;16.67;;;;;28.39;48.62;100062.94;4823402;29;45543;-83
2022/08/16 12:25:39;;;;;;;;;19.00;18.00;;;;;28.19;48.93;100060.75;4874917;29;45681;-85
2022/08/16 12:28:13;;;;;;;;;16.33;16.00;;;;;28.06;49.40;100058.88;4876047;29;45463;-84
2022/08/16 12:30:44;;;;;;;;;19.33;17.00;;;;;28.18;50.16;100095.44;4880844;28;44857;-84